createdAt,value
2023-01-19T04:42:18.208Z,98857.50
2023-01-19T04:45:21.582Z,98848.97
2023-01-19T04:48:24.254Z,98829.81
2023-01-19T04:51:28.736Z,98835.87
2023-01-19T04:54:31.839Z,98833.47
2023-01-19T04:57:34.947Z,98825.53
2023-01-19T05:00:38.171Z,98849.63
2023-01-19T05:03:41.112Z,98856.72
2023-01-19T05:06:43.700Z,98866.94
2023-01-19T05:09:46.816Z,98875.50
2023-01-19T05:12:49.622Z,98892.88
2023-01-19T05:15:52.347Z,98886.03
2023-01-19T05:18:55.031Z,98870.50
2023-01-19T05:21:57.989Z,98878.84
2023-01-19T05:25:01.740Z,98896.78
2023-01-19T05:28:04.892Z,98901.31
2023-01-19T05:31:07.867Z,98909.97
2023-01-19T05:34:11.599Z,98912.25
2023-01-19T05:37:14.287Z,98910.81
2023-01-19T05:40:17.255Z,98914.19
2023-01-19T05:43:19.851Z,98912.19
2023-01-19T05:46:23.333Z,98912.25
2023-01-19T05:49:26.246Z,98906.41
2023-01-19T05:52:29.158Z,98890.81
2023-01-19T05:55:32.246Z,98888.97
2023-01-19T05:58:36.468Z,98899.19
2023-01-19T06:01:40.312Z,98886.56
2023-01-19T06:04:43.448Z,98861.12
2023-01-19T06:07:46.444Z,98857.84
2023-01-19T06:10:49.651Z,98867.22
2023-01-19T06:13:52.222Z,98861.94
2023-01-19T06:16:55.194Z,98870.09
2023-01-19T06:19:58.093Z,98849.09
2023-01-19T06:23:01.142Z,98864.19
2023-01-19T06:26:04.207Z,98869.84
2023-01-19T06:29:14.544Z,98860.84
2023-01-19T06:32:19.833Z,98844.09
2023-01-19T06:35:22.785Z,98851.19
2023-01-19T06:38:25.642Z,98852.84
2023-01-19T06:41:29.618Z,98867.16
2023-01-19T06:44:32.271Z,98885.16
2023-01-19T06:47:35.170Z,98895.44
2023-01-19T06:50:37.829Z,98906.84
2023-01-19T06:53:40.855Z,98903.91
2023-01-19T06:56:43.582Z,98894.50
2023-01-19T06:59:46.822Z,98884.38
2023-01-19T07:02:50.418Z,98896.41
2023-01-19T07:05:53.758Z,98890.34
2023-01-19T07:08:56.367Z,98883.63
2023-01-19T07:12:00.166Z,98880.00
2023-01-19T07:15:03.384Z,98875.94
2023-01-19T07:18:08.040Z,98861.22
2023-01-19T07:21:10.656Z,98867.81
2023-01-19T07:24:13.741Z,98881.25
2023-01-19T07:27:16.509Z,98900.66
2023-01-19T07:30:19.392Z,98911.81
2023-01-19T07:33:23.505Z,98915.41
2023-01-19T07:36:26.385Z,98906.09
2023-01-19T07:39:30.779Z,98906.38
2023-01-19T07:42:33.733Z,98901.09
2023-01-19T07:45:36.534Z,98906.72
2023-01-19T07:48:39.800Z,98913.78
2023-01-19T07:51:42.419Z,98906.00
2023-01-19T07:54:45.477Z,98914.38
2023-01-19T07:57:51.594Z,98918.00
2023-01-19T08:00:54.830Z,98923.94
2023-01-19T08:03:58.068Z,98923.28
2023-01-19T08:07:00.849Z,98934.47
2023-01-19T08:10:03.990Z,98916.19
2023-01-19T08:13:06.832Z,98925.28
2023-01-19T08:16:09.837Z,98908.22
2023-01-19T08:19:12.665Z,98902.13
2023-01-19T08:22:15.534Z,98910.25
2023-01-19T08:25:18.369Z,98903.50
2023-01-19T08:28:21.716Z,98902.03
2023-01-19T08:31:26.840Z,98903.28
2023-01-19T08:34:31.071Z,98905.94
2023-01-19T08:37:34.348Z,98907.50
2023-01-19T08:40:39.833Z,98915.09
2023-01-19T08:43:42.661Z,98918.97
2023-01-19T08:46:45.599Z,98919.22
2023-01-19T08:49:48.465Z,98916.34
2023-01-19T08:52:51.958Z,98911.75
2023-01-19T08:56:00.092Z,98925.81
2023-01-19T08:59:09.867Z,98931.72
2023-01-19T09:02:13.642Z,98929.00
2023-01-19T09:05:17.250Z,98917.91
2023-01-19T09:08:20.182Z,98917.78
2023-01-19T09:11:23.199Z,98916.66
2023-01-19T09:14:26.032Z,98909.56
2023-01-19T09:17:29.113Z,98915.06
2023-01-19T09:20:33.859Z,98910.06
2023-01-19T09:23:37.533Z,98913.75
2023-01-19T09:26:40.747Z,98920.59
2023-01-19T09:29:50.716Z,98926.41
2023-01-19T09:32:53.477Z,98914.25
2023-01-19T09:35:56.839Z,98910.19
2023-01-19T09:38:59.713Z,98921.13
2023-01-19T09:42:37.207Z,98918.81
2023-01-19T09:45:50.267Z,98920.91
2023-01-19T09:48:56.698Z,98919.56
2023-01-19T09:52:00.584Z,98907.38
2023-01-19T09:55:03.652Z,98909.22
2023-01-19T09:58:12.728Z,98912.03
2023-01-19T10:01:35.164Z,98923.09
2023-01-19T10:05:05.833Z,98922.88
2023-01-19T10:08:29.933Z,98923.78
2023-01-19T10:11:54.385Z,98928.22
2023-01-19T10:15:05.068Z,98927.13
2023-01-19T10:18:18.999Z,98928.94
2023-01-19T10:21:28.306Z,98928.31
2023-01-19T10:24:42.973Z,98941.31
2023-01-19T10:27:46.707Z,98944.97
2023-01-19T10:30:51.770Z,98939.31
2023-01-19T10:33:54.583Z,98940.47
2023-01-19T10:37:05.555Z,98935.56
2023-01-19T10:40:11.125Z,98936.81
2023-01-19T10:43:34.975Z,98943.91
2023-01-19T10:46:42.550Z,98946.19
2023-01-19T10:49:47.817Z,98959.34
2023-01-19T10:52:56.913Z,98949.91
2023-01-19T10:56:10.958Z,98954.81
2023-01-19T10:59:37.204Z,98955.59
2023-01-19T11:02:51.339Z,98960.72
2023-01-19T11:05:54.071Z,98965.34
2023-01-19T11:09:11.234Z,98955.53
2023-01-19T11:12:19.919Z,98964.84
2023-01-19T11:15:24.307Z,98961.88
2023-01-19T11:18:33.046Z,98955.16
2023-01-19T11:21:36.123Z,98950.53
2023-01-19T11:24:39.481Z,98957.44
2023-01-19T11:27:51.260Z,98956.94
2023-01-19T11:31:16.284Z,98956.06
2023-01-19T11:34:37.470Z,98953.34
2023-01-19T11:37:42.916Z,98953.41
2023-01-19T11:40:58.019Z,98948.13
2023-01-19T11:44:12.033Z,98962.53
2023-01-19T11:47:23.445Z,98967.59
2023-01-19T11:50:41.584Z,98970.13
2023-01-19T11:53:49.398Z,98967.50
2023-01-19T11:56:54.245Z,98966.25
2023-01-19T12:00:05.172Z,98970.16
2023-01-19T12:03:17.185Z,98975.62
2023-01-19T12:06:25.621Z,98985.31
2023-01-19T12:09:36.835Z,98983.16
2023-01-19T12:12:41.145Z,98992.28
2023-01-19T12:15:45.998Z,98999.38
2023-01-19T12:18:56.719Z,98993.97
2023-01-19T12:21:59.850Z,99003.00
2023-01-19T12:25:24.917Z,99008.38
2023-01-19T12:28:35.199Z,99014.41
2023-01-19T12:31:40.633Z,99016.94
2023-01-19T12:34:47.467Z,99008.59
2023-01-19T12:37:50.379Z,99024.38
2023-01-19T12:41:25.184Z,99028.53
2023-01-19T12:44:30.751Z,99033.87
2023-01-19T12:47:34.756Z,99029.78
2023-01-19T12:50:39.041Z,99035.09
2023-01-19T12:53:51.981Z,99042.63
2023-01-19T12:57:02.673Z,99039.38
2023-01-19T13:00:31.226Z,99052.16
2023-01-19T13:03:34.158Z,99049.72
2023-01-19T13:06:49.109Z,99050.47
2023-01-19T13:09:52.747Z,99062.03
2023-01-19T13:13:20.580Z,99063.91
2023-01-19T13:16:25.151Z,99084.63
2023-01-19T13:19:38.175Z,99084.16
2023-01-19T13:22:49.728Z,99096.03
2023-01-19T13:26:01.249Z,99101.66
2023-01-19T13:29:08.565Z,99110.19
2023-01-19T13:32:20.128Z,99112.25
2023-01-19T13:35:26.835Z,99109.66
2023-01-19T13:38:32.931Z,99116.25
2023-01-19T13:41:39.085Z,99125.06
2023-01-19T13:44:51.444Z,99131.66
2023-01-19T13:47:56.928Z,99138.59
2023-01-19T13:51:02.810Z,99148.03
2023-01-19T13:54:14.472Z,99157.50
2023-01-19T13:57:25.533Z,99156.34
2023-01-19T14:00:31.017Z,99154.37
2023-01-19T14:03:34.226Z,99159.19
2023-01-19T14:06:45.061Z,99165.13
2023-01-19T14:09:48.096Z,99176.34
2023-01-19T14:13:05.601Z,99164.47
2023-01-19T14:16:15.404Z,99168.66
2023-01-19T14:19:18.199Z,99163.13
2023-01-19T14:22:21.184Z,99157.13
2023-01-19T14:25:29.048Z,99146.59
2023-01-19T14:28:43.403Z,99143.97
2023-01-19T14:31:49.196Z,99144.97
2023-01-19T14:35:04.336Z,99159.66
2023-01-19T14:38:14.205Z,99178.84
2023-01-19T14:41:30.788Z,99180.75
2023-01-19T14:44:39.741Z,99184.41
2023-01-19T14:47:45.753Z,99175.84
2023-01-19T14:51:02.827Z,99189.66
2023-01-19T14:54:16.929Z,99203.84
2023-01-19T14:57:19.606Z,99204.53
2023-01-19T15:00:22.988Z,99205.84
2023-01-19T15:03:42.668Z,99222.44
2023-01-19T15:06:48.467Z,99227.81
2023-01-19T15:09:51.656Z,99250.34
2023-01-19T15:12:55.650Z,99266.19
2023-01-19T15:15:58.892Z,99292.78
2023-01-19T15:19:02.133Z,99286.34
2023-01-19T15:22:11.643Z,99286.34
2023-01-19T15:25:16.746Z,99276.81
2023-01-19T15:28:20.308Z,99278.31
2023-01-19T15:31:25.606Z,99253.37
2023-01-19T15:34:28.481Z,99273.31
2023-01-19T15:37:33.035Z,99278.56
2023-01-19T15:40:35.693Z,99283.69
2023-01-19T15:43:38.599Z,99289.94
2023-01-19T15:46:41.276Z,99275.16
2023-01-19T15:49:44.185Z,99287.41
2023-01-19T15:52:47.038Z,99284.00
2023-01-19T15:55:55.491Z,99298.72
2023-01-19T15:58:59.090Z,99305.81
2023-01-19T16:02:02.710Z,99300.53
2023-01-19T16:05:06.580Z,99314.53
2023-01-19T16:08:11.086Z,99323.66
2023-01-19T16:11:15.447Z,99348.03
2023-01-19T16:14:18.593Z,99343.88
2023-01-19T16:17:21.569Z,99334.47
2023-01-19T16:20:24.099Z,99352.63
2023-01-19T16:23:27.444Z,99362.06
2023-01-19T16:26:33.668Z,99370.81
2023-01-19T16:29:36.616Z,99378.56
2023-01-19T16:32:39.288Z,99378.00
2023-01-19T16:35:42.310Z,99389.16
